Theodore Roosevelt National Park, ND

14:49 MDT le 25 septembre 2016 (GMT -0600)
Dickinson Municipal | | Change Station
Avis météorologiques actifs: Wind Advisory

Alt. 2592 ft 46.80 °N, 102.80 °W | Updated 53 minutes ago

Clear
Ciel dégagé
60 ° F
Paraît 60 ° F
N
25
Vent Variable Vent de NO
Gusts 38 mph

Aujourd'hui
Haut(e) -- | Bas -- ° F
--% Risque de précip.
Hier
Haut(e) -- | Bas -- ° F
Precip. -- pouce
Pression 30.19 pouce
Visibilité 10.0 Miles terrestres
Nuages Ciel dégagé
Point de rosée 28 ° F
Humidité 30%
Précipitations 0.09 pouce
Profondeur de la couche neigeuse Non disponible.
6:42 AM 6:41 PM
Lune descendante, 25% visible
METAR KDIK 251956Z AUTO 32022G33KT 10SM CLR 16/M02 A3018 RMK AO2 PK WND 31036/1940 SLP223 T01561022
Pression 30.19 pouce
Visibilité 10.0 Miles terrestres
Nuages Ciel dégagé
Point de rosée 28 ° F
Humidité 30%
Précipitations 0.09 pouce
Profondeur de la couche neigeuse Non disponible.
6:42 AM 6:41 PM
Lune descendante, 25% visible
METAR KDIK 251956Z AUTO 32022G33KT 10SM CLR 16/M02 A3018 RMK AO2 PK WND 31036/1940 SLP223 T01561022

10-Day Weather Forecast

Almanac

Astronomie

Sep. 25, 2016 Lever Coucher
Temps réel
Crépuscule civil
Crépuscule nautique
Crépuscule astronomique
Lune
Durée de lumière visible
Longueur du jour
Tomorrow will be .
, % of the Moon is Illuminated

Extrêmes aujourd'hui

State Highs State Lows

Community

WunderPhotos

Upload Photos

1,941,727 Photos téléchargées !

WunderBlog® & News

Nearby

Qualité de l'air

  Qualité de l'air Indice de la qualité de l'air Polluant
Not available.

Épaisseur de neige

Station Depth Altitude

Activité sismique

Ville Distance Mag. Time & Date
Minimum magnitude displayed is 2.5.

Températures des eaux côtières

Lieu Température

Stations

Stations météo à proximité

Emplacement de la station Température Refroidissement éolien Point de rosée Humidité Vent Precip. Alt. Mise à jour Type
                   

Watches & Warnings

Wind Advisory
Issued: 13:48 MDT Sep. 25, 2016 – National Weather Service

... Wind Advisory remains in effect until 6 PM CDT /5 PM MDT/ this
evening...

* timing... until 6 PM CDT / 5 PM MDT / this evening.

* Winds... northwest wind gusts to 45 mph.

* Impacts... difficulty for those driving... especially high
profile vehicles... and added dangers for those working
outside... especially on elevated surfaces.